createdAt,value
2023-05-04T00:00:14.795Z,83.02
2023-05-04T00:01:18.019Z,82.72
2023-05-04T00:02:20.443Z,82.72
2023-05-04T00:03:23.132Z,82.57
2023-05-04T00:04:25.606Z,82.27
2023-05-04T00:05:27.804Z,81.99
2023-05-04T00:06:30.235Z,81.88
2023-05-04T00:07:32.571Z,81.64
2023-05-04T00:08:34.920Z,81.33
2023-05-04T00:09:37.340Z,81.61
2023-05-04T00:10:39.791Z,81.54
2023-05-04T00:11:42.008Z,81.54
2023-05-04T00:12:46.164Z,81.54
2023-05-04T00:13:48.494Z,81.18
2023-05-04T00:14:50.958Z,81.12
2023-05-04T00:15:53.286Z,81.35
2023-05-04T00:16:55.782Z,81.24
2023-05-04T00:17:57.947Z,81.42
2023-05-04T00:19:00.657Z,81.26
2023-05-04T00:20:04.430Z,81.12
2023-05-04T00:21:07.431Z,81.46
2023-05-04T00:22:09.547Z,81.63
2023-05-04T00:23:11.745Z,81.84
2023-05-04T00:24:13.945Z,81.90
2023-05-04T00:25:16.155Z,81.79
2023-05-04T00:26:18.468Z,81.67
2023-05-04T00:27:20.985Z,81.63
2023-05-04T00:28:23.714Z,81.31
2023-05-04T00:29:26.001Z,82.11
2023-05-04T00:30:29.277Z,82.62
2023-05-04T00:31:31.719Z,82.49
2023-05-04T00:32:34.431Z,82.37
2023-05-04T00:33:36.925Z,82.79
2023-05-04T00:34:39.225Z,83.32
2023-05-04T00:35:41.378Z,83.20
2023-05-04T00:36:43.783Z,83.47
2023-05-04T00:37:46.339Z,83.83
2023-05-04T00:38:50.688Z,83.73
2023-05-04T00:39:52.962Z,83.78
2023-05-04T00:40:58.322Z,84.08
2023-05-04T00:42:01.190Z,84.48
2023-05-04T00:43:03.355Z,84.82
2023-05-04T00:44:05.901Z,85.08
2023-05-04T00:45:09.018Z,85.49
2023-05-04T00:46:11.892Z,85.76
2023-05-04T00:47:16.238Z,86.57
2023-05-04T00:48:18.872Z,86.48
2023-05-04T00:49:21.330Z,87.08
2023-05-04T00:50:25.679Z,87.67
2023-05-04T00:51:29.626Z,87.40
2023-05-04T00:52:32.189Z,87.97
2023-05-04T00:53:36.417Z,87.90
2023-05-04T00:54:39.228Z,87.70
2023-05-04T00:55:41.409Z,87.65
2023-05-04T00:56:46.497Z,87.87
2023-05-04T00:57:50.181Z,88.04
2023-05-04T00:58:53.858Z,88.07
2023-05-04T00:59:56.529Z,87.82
2023-05-04T01:01:00.159Z,87.68
2023-05-04T01:02:02.736Z,88.21
2023-05-04T01:03:06.295Z,88.24
2023-05-04T01:04:11.064Z,88.52
2023-05-04T01:05:13.983Z,88.51
2023-05-04T01:06:38.192Z,88.73
2023-05-04T01:07:53.270Z,88.78
2023-05-04T01:09:11.549Z,88.43
2023-05-04T01:10:35.924Z,89.17
2023-05-04T01:12:02.592Z,89.51
2023-05-04T01:13:08.698Z,89.40
2023-05-04T01:14:14.015Z,89.88
2023-05-04T01:15:17.589Z,90.12
2023-05-04T01:16:20.629Z,90.16
2023-05-04T01:17:24.119Z,90.22
2023-05-04T01:18:26.496Z,90.12
2023-05-04T01:19:29.066Z,90.02
2023-05-04T01:20:32.262Z,89.56
2023-05-04T01:21:36.311Z,89.77
2023-05-04T01:22:38.804Z,89.89
2023-05-04T01:23:41.315Z,89.91
2023-05-04T01:24:43.757Z,90.14
2023-05-04T01:25:58.595Z,90.27
2023-05-04T01:28:19.316Z,90.32
2023-05-04T01:30:44.974Z,90.28
2023-05-04T01:33:55.946Z,90.88
2023-05-04T01:34:59.707Z,91.01
2023-05-04T01:36:02.337Z,91.76
2023-05-04T01:43:19.745Z,92.39
2023-05-04T01:44:22.074Z,92.51
2023-05-04T01:45:26.440Z,92.54
2023-05-04T01:46:29.206Z,92.58
2023-05-04T01:47:31.658Z,93.29
2023-05-04T01:48:35.233Z,93.33
2023-05-04T01:49:37.745Z,93.24
2023-05-04T01:50:40.691Z,93.24
2023-05-04T01:51:45.926Z,93.20
2023-05-04T01:52:48.330Z,93.37
2023-05-04T01:53:51.041Z,93.61
2023-05-04T01:54:53.423Z,93.70
2023-05-04T01:55:55.644Z,93.81
2023-05-04T01:56:58.046Z,93.77
2023-05-04T01:58:00.230Z,93.47
2023-05-04T01:59:02.924Z,93.43
2023-05-04T02:00:06.951Z,93.39
2023-05-04T02:01:18.011Z,93.84
2023-05-04T02:02:20.952Z,94.26
2023-05-04T02:03:23.431Z,94.25
2023-05-04T02:04:26.134Z,94.29
2023-05-04T02:05:28.426Z,94.29
2023-05-04T02:06:32.515Z,94.67
2023-05-04T02:07:34.807Z,94.61
2023-05-04T02:08:38.417Z,94.35
2023-05-04T02:09:41.090Z,94.13
2023-05-04T02:10:43.444Z,94.22
2023-05-04T02:11:45.967Z,94.32
2023-05-04T02:12:48.243Z,94.64
2023-05-04T02:13:50.633Z,94.67
2023-05-04T02:14:52.978Z,95.14
2023-05-04T02:15:55.757Z,95.33
2023-05-04T02:16:58.265Z,95.21
2023-05-04T02:18:00.857Z,95.00
2023-05-04T02:19:03.215Z,94.96
2023-05-04T02:20:07.302Z,95.00
2023-05-04T02:21:10.436Z,95.15
2023-05-04T02:22:12.736Z,94.88
2023-05-04T02:23:15.397Z,94.81
2023-05-04T02:24:17.981Z,94.67
2023-05-04T02:25:20.484Z,94.55
2023-05-04T02:26:22.810Z,94.01
2023-05-04T02:27:25.353Z,93.31
2023-05-04T02:28:27.660Z,93.20
2023-05-04T02:29:29.780Z,92.87
2023-05-04T02:30:32.200Z,93.12
2023-05-04T02:31:34.868Z,93.48
2023-05-04T02:32:38.269Z,93.43
2023-05-04T02:33:41.130Z,93.53
2023-05-04T02:34:44.010Z,93.59
2023-05-04T02:35:46.875Z,93.43
2023-05-04T02:36:49.766Z,93.36
2023-05-04T02:37:52.363Z,93.45
2023-05-04T02:38:55.481Z,93.41
2023-05-04T02:39:57.571Z,93.68
2023-05-04T02:41:00.014Z,93.38
2023-05-04T02:42:02.639Z,93.08
2023-05-04T02:43:05.396Z,93.36
2023-05-04T02:44:09.567Z,93.36
2023-05-04T02:45:12.416Z,92.83
2023-05-04T02:46:14.904Z,92.61
2023-05-04T02:47:17.513Z,92.66
2023-05-04T02:48:20.164Z,92.45
2023-05-04T02:49:22.475Z,92.55
2023-05-04T02:50:26.570Z,92.78
2023-05-04T02:51:28.697Z,92.91
2023-05-04T02:52:31.989Z,92.72
2023-05-04T02:53:35.265Z,92.82
2023-05-04T02:54:38.629Z,93.01
2023-05-04T02:55:41.809Z,93.35
2023-05-04T02:56:44.267Z,93.41
2023-05-04T02:57:46.685Z,93.24
2023-05-04T02:58:48.831Z,93.04
2023-05-04T02:59:51.367Z,93.26
2023-05-04T03:00:57.339Z,92.46
2023-05-04T03:02:00.482Z,92.46
2023-05-04T03:03:02.905Z,92.67
2023-05-04T03:04:06.980Z,92.62
2023-05-04T03:05:09.912Z,92.29
2023-05-04T03:06:13.963Z,92.52
2023-05-04T03:07:16.508Z,92.67
2023-05-04T03:08:18.715Z,92.39
2023-05-04T03:09:20.994Z,92.43
2023-05-04T03:10:24.414Z,92.63
2023-05-04T03:11:26.987Z,92.45
2023-05-04T03:12:29.527Z,92.32
2023-05-04T03:13:31.714Z,92.15
2023-05-04T03:14:33.937Z,91.65
2023-05-04T03:15:36.360Z,91.39
2023-05-04T03:16:38.940Z,91.43
2023-05-04T03:17:41.425Z,91.23
2023-05-04T03:18:44.049Z,91.70
2023-05-04T03:19:46.515Z,91.70
2023-05-04T03:20:48.833Z,91.80
2023-05-04T03:21:52.978Z,91.77
2023-05-04T03:22:55.302Z,91.63
2023-05-04T03:23:59.909Z,91.39
2023-05-04T03:25:03.694Z,91.48
2023-05-04T03:26:06.337Z,90.83
2023-05-04T03:27:08.469Z,90.24
2023-05-04T03:28:11.495Z,90.09
2023-05-04T03:29:13.593Z,89.73
2023-05-04T03:30:16.449Z,90.16
2023-05-04T03:31:20.169Z,90.36
2023-05-04T03:32:25.736Z,90.52
2023-05-04T03:33:28.114Z,90.64
2023-05-04T03:34:31.846Z,90.96
2023-05-04T03:35:36.544Z,91.53
2023-05-04T03:36:39.212Z,91.46
2023-05-04T03:37:41.455Z,91.57
2023-05-04T03:38:44.994Z,91.77
2023-05-04T03:39:47.819Z,91.91
2023-05-04T03:40:50.209Z,91.99
2023-05-04T03:41:52.542Z,92.17
2023-05-04T03:42:57.792Z,92.40
2023-05-04T03:44:00.869Z,92.30
2023-05-04T03:45:04.454Z,92.20
2023-05-04T03:46:09.329Z,91.61
2023-05-04T03:47:11.841Z,91.75
2023-05-04T03:48:15.171Z,91.91
2023-05-04T03:49:18.506Z,91.80
2023-05-04T03:50:21.677Z,91.62
2023-05-04T03:51:24.453Z,91.73
2023-05-04T03:52:26.796Z,91.73
2023-05-04T03:53:29.225Z,91.32
2023-05-04T03:54:32.909Z,90.58
2023-05-04T03:55:35.955Z,90.58
2023-05-04T03:56:38.438Z,90.53
2023-05-04T03:57:41.325Z,89.64
2023-05-04T03:58:44.108Z,89.03
2023-05-04T03:59:48.280Z,88.26
2023-05-04T04:00:51.798Z,87.72
2023-05-04T04:01:54.210Z,87.61
2023-05-04T04:02:56.452Z,87.09
2023-05-04T04:03:58.882Z,87.35
2023-05-04T04:05:01.124Z,87.33
2023-05-04T04:06:07.255Z,86.96
2023-05-04T04:07:09.580Z,86.89
2023-05-04T04:08:13.610Z,86.38
2023-05-04T04:09:15.796Z,85.99
2023-05-04T04:10:18.228Z,85.48
2023-05-04T04:11:21.758Z,85.49
2023-05-04T04:12:24.849Z,85.47
2023-05-04T04:13:27.420Z,85.38
2023-05-04T04:14:30.486Z,85.42
2023-05-04T04:15:33.332Z,85.41
2023-05-04T04:16:35.935Z,85.17
2023-05-04T04:17:38.393Z,85.04
2023-05-04T04:18:41.029Z,84.52
2023-05-04T04:19:43.370Z,84.16
2023-05-04T04:20:46.110Z,84.19
2023-05-04T04:21:48.792Z,83.99
2023-05-04T04:22:51.351Z,83.66
2023-05-04T04:23:54.640Z,82.92
2023-05-04T04:24:56.812Z,83.20
2023-05-04T04:25:59.330Z,82.76
2023-05-04T04:27:03.238Z,82.45
2023-05-04T04:28:05.627Z,82.21
2023-05-04T04:29:09.076Z,82.25
2023-05-04T04:30:12.896Z,81.43
2023-05-04T04:31:15.395Z,81.28
2023-05-04T04:32:17.709Z,80.83
2023-05-04T04:33:20.826Z,80.56
2023-05-04T04:34:23.753Z,80.79
2023-05-04T04:35:27.019Z,81.08
2023-05-04T04:36:29.793Z,81.02
2023-05-04T04:37:33.104Z,81.00
2023-05-04T04:38:37.179Z,81.17
2023-05-04T04:39:39.392Z,81.01
2023-05-04T04:40:43.356Z,80.58
2023-05-04T04:41:46.214Z,80.49
2023-05-04T04:42:48.489Z,79.96
2023-05-04T04:43:50.728Z,80.23
2023-05-04T04:44:53.919Z,80.49
2023-05-04T04:45:56.447Z,80.24
2023-05-04T04:46:58.973Z,80.28
2023-05-04T04:48:03.497Z,79.90
2023-05-04T04:49:06.708Z,80.00
2023-05-04T04:50:10.626Z,80.27
2023-05-04T04:51:12.944Z,80.23
2023-05-04T04:52:15.647Z,80.31
2023-05-04T04:53:18.398Z,80.23
2023-05-04T04:54:20.619Z,80.19
2023-05-04T04:55:24.717Z,79.89
2023-05-04T04:56:27.497Z,79.92
2023-05-04T04:57:32.549Z,79.52
2023-05-04T04:58:34.968Z,78.65
2023-05-04T04:59:38.054Z,78.66
2023-05-04T05:00:40.635Z,78.37
2023-05-04T05:01:42.931Z,78.70
2023-05-04T05:02:45.988Z,78.70
2023-05-04T05:03:49.497Z,78.80
2023-05-04T05:04:52.182Z,79.39
2023-05-04T05:05:55.196Z,79.35
2023-05-04T05:06:58.348Z,79.40
2023-05-04T05:08:01.031Z,79.33
2023-05-04T05:09:03.338Z,78.89
2023-05-04T05:10:08.003Z,78.52
2023-05-04T05:11:10.982Z,78.16
2023-05-04T05:12:13.266Z,78.00
2023-05-04T05:13:15.754Z,77.20
2023-05-04T05:14:18.098Z,77.14
2023-05-04T05:15:20.620Z,77.08
2023-05-04T05:16:23.276Z,76.57
2023-05-04T05:17:26.217Z,75.71
2023-05-04T05:18:28.832Z,75.81
2023-05-04T05:19:32.760Z,75.14
2023-05-04T05:20:35.609Z,74.81
2023-05-04T05:21:38.204Z,74.85
2023-05-04T05:22:40.975Z,74.68
2023-05-04T05:23:43.528Z,74.77
2023-05-04T05:24:46.382Z,74.82
2023-05-04T05:25:48.670Z,74.09
2023-05-04T05:26:52.481Z,73.82
2023-05-04T05:27:54.710Z,73.75
2023-05-04T05:28:57.050Z,73.50
2023-05-04T05:29:59.682Z,73.39
2023-05-04T05:31:02.060Z,72.93
2023-05-04T05:32:06.237Z,72.95
2023-05-04T05:33:08.499Z,72.53
2023-05-04T05:34:11.258Z,72.62
2023-05-04T05:35:13.530Z,72.20
2023-05-04T05:36:15.940Z,72.25
2023-05-04T05:37:18.179Z,72.25
2023-05-04T05:38:21.011Z,72.03
2023-05-04T05:39:23.480Z,72.75
2023-05-04T05:40:25.910Z,72.70
2023-05-04T05:41:28.151Z,72.61
2023-05-04T05:42:30.766Z,72.57
2023-05-04T05:43:33.021Z,72.42
2023-05-04T05:44:36.837Z,72.10
2023-05-04T05:45:39.120Z,71.84
2023-05-04T05:46:41.580Z,71.39
2023-05-04T05:47:43.972Z,70.91
2023-05-04T05:48:46.855Z,70.26
2023-05-04T05:49:49.045Z,70.04
2023-05-04T05:50:51.682Z,69.82
2023-05-04T05:51:53.810Z,69.05
2023-05-04T05:52:56.121Z,68.90
2023-05-04T05:53:58.475Z,68.67
2023-05-04T05:55:02.691Z,68.08
2023-05-04T05:56:06.001Z,67.91
2023-05-04T05:57:08.063Z,67.93
2023-05-04T05:58:10.527Z,67.46
2023-05-04T05:59:12.835Z,67.96
2023-05-04T06:00:16.990Z,68.80
2023-05-04T06:01:19.602Z,69.21
2023-05-04T06:02:22.034Z,69.54
2023-05-04T06:03:24.696Z,70.46
2023-05-04T06:04:28.176Z,70.46
2023-05-04T06:05:31.536Z,70.45
2023-05-04T06:06:34.119Z,70.60
2023-05-04T06:07:36.835Z,70.54
2023-05-04T06:08:40.055Z,70.34
2023-05-04T06:09:42.346Z,70.09
2023-05-04T06:10:45.054Z,70.20
2023-05-04T06:11:47.579Z,70.06
2023-05-04T06:12:50.457Z,70.07
2023-05-04T06:13:53.351Z,70.17
2023-05-04T06:14:55.560Z,70.23
2023-05-04T06:15:57.861Z,69.97
2023-05-04T06:17:01.505Z,69.96
2023-05-04T06:18:03.854Z,70.13
2023-05-04T06:19:06.994Z,69.76
2023-05-04T06:20:11.846Z,69.71
2023-05-04T06:21:14.194Z,69.44
2023-05-04T06:22:16.821Z,69.47
2023-05-04T06:23:18.941Z,69.27
2023-05-04T06:24:22.231Z,69.88
2023-05-04T06:25:24.439Z,70.25
2023-05-04T06:26:26.917Z,70.19
2023-05-04T06:27:31.046Z,69.94
2023-05-04T06:28:34.773Z,69.68
2023-05-04T06:29:38.857Z,69.03
2023-05-04T06:30:41.109Z,68.69
2023-05-04T06:31:47.472Z,68.39
2023-05-04T06:32:50.227Z,68.57
2023-05-04T06:33:52.649Z,68.47
2023-05-04T06:34:55.269Z,67.99
2023-05-04T06:35:58.320Z,67.58
2023-05-04T06:37:00.780Z,67.58
2023-05-04T06:38:03.599Z,67.54
2023-05-04T06:39:05.974Z,67.36
2023-05-04T06:40:09.800Z,66.84
2023-05-04T06:41:12.308Z,66.95
2023-05-04T06:42:14.745Z,66.69
2023-05-04T06:43:18.430Z,66.50
2023-05-04T06:44:21.176Z,66.19
2023-05-04T06:45:24.117Z,66.09
2023-05-04T06:46:27.823Z,65.60
2023-05-04T06:47:30.430Z,65.61
2023-05-04T06:48:33.774Z,65.40
2023-05-04T06:49:36.202Z,65.14
2023-05-04T06:50:39.291Z,65.12
2023-05-04T06:51:41.564Z,64.99
2023-05-04T06:52:44.730Z,64.98
2023-05-04T06:53:47.094Z,64.94
2023-05-04T06:54:49.317Z,64.60
2023-05-04T06:55:52.021Z,64.75
2023-05-04T06:56:55.648Z,65.19
2023-05-04T06:57:58.048Z,65.49
2023-05-04T06:59:00.373Z,65.64
2023-05-04T07:00:04.067Z,65.41
2023-05-04T07:01:08.668Z,65.19
2023-05-04T07:02:11.334Z,65.28
2023-05-04T07:03:13.614Z,65.18
2023-05-04T07:04:16.965Z,64.75
2023-05-04T07:05:21.928Z,64.73
2023-05-04T07:07:37.009Z,65.17
2023-05-04T07:08:39.219Z,65.25
2023-05-04T07:09:43.018Z,65.41
2023-05-04T07:10:45.772Z,65.70
2023-05-04T07:11:49.090Z,65.72
2023-05-04T07:12:51.395Z,65.78
2023-05-04T07:13:53.590Z,65.32
2023-05-04T07:14:56.230Z,64.96
2023-05-04T07:15:58.403Z,64.52
2023-05-04T07:17:00.959Z,64.52
2023-05-04T07:18:03.800Z,65.20
2023-05-04T07:19:06.491Z,64.96
2023-05-04T07:20:10.658Z,64.62
2023-05-04T07:21:26.755Z,64.35
2023-05-04T07:22:17.971Z,64.33
2023-05-04T07:23:20.422Z,64.06
2023-05-04T07:24:22.761Z,64.43
2023-05-04T07:25:25.593Z,65.55
2023-05-04T07:26:27.971Z,65.75
2023-05-04T07:27:30.819Z,65.56
2023-05-04T07:28:33.196Z,64.86
2023-05-04T07:29:35.945Z,64.63
2023-05-04T07:30:39.528Z,64.50
2023-05-04T07:31:41.858Z,64.41
2023-05-04T07:32:44.180Z,64.56
2023-05-04T07:33:47.367Z,64.96
2023-05-04T07:34:49.628Z,64.98
2023-05-04T07:35:58.680Z,65.27
2023-05-04T07:37:02.885Z,65.54
2023-05-04T07:38:05.049Z,65.56
2023-05-04T07:39:08.328Z,65.51
2023-05-04T07:40:14.807Z,65.19
2023-05-04T07:41:17.783Z,65.30
2023-05-04T07:42:24.667Z,65.39
2023-05-04T07:43:27.927Z,65.24
2023-05-04T07:44:32.569Z,65.57
2023-05-04T07:45:36.230Z,65.67
2023-05-04T07:46:38.915Z,65.55
2023-05-04T07:47:41.588Z,65.17
2023-05-04T07:48:43.907Z,65.81
2023-05-04T07:49:48.826Z,65.91
2023-05-04T07:50:51.344Z,65.78
2023-05-04T07:51:54.209Z,65.38
2023-05-04T07:52:57.424Z,64.99
2023-05-04T07:54:00.698Z,64.28
2023-05-04T07:55:04.654Z,63.89
2023-05-04T07:56:12.278Z,64.07
2023-05-04T07:57:15.179Z,64.38
2023-05-04T07:58:17.634Z,64.47
2023-05-04T07:59:21.149Z,64.00
2023-05-04T08:00:23.759Z,64.18
2023-05-04T08:01:26.734Z,63.74
2023-05-04T08:02:29.172Z,62.87
2023-05-04T08:03:33.099Z,62.73
2023-05-04T08:04:36.405Z,62.04
2023-05-04T08:05:39.020Z,61.75
2023-05-04T08:06:41.886Z,61.62
2023-05-04T08:07:48.330Z,61.26
2023-05-04T08:08:52.774Z,61.17
2023-05-04T08:09:56.368Z,60.89
2023-05-04T08:11:12.030Z,60.84
2023-05-04T08:12:04.606Z,61.15
2023-05-04T08:13:08.005Z,61.33
2023-05-04T08:14:11.118Z,61.15
2023-05-04T08:15:14.120Z,60.86
2023-05-04T08:16:16.713Z,60.78
2023-05-04T08:17:19.176Z,60.53
2023-05-04T08:18:21.378Z,59.51
2023-05-04T08:19:25.267Z,59.22
2023-05-04T08:20:27.952Z,59.12
2023-05-04T08:21:31.226Z,58.71
2023-05-04T08:22:33.835Z,58.07
2023-05-04T08:23:36.063Z,58.56
2023-05-04T08:24:38.289Z,57.72
2023-05-04T08:25:40.568Z,56.76
2023-05-04T08:26:45.341Z,56.60
2023-05-04T08:27:47.454Z,56.47
2023-05-04T08:28:50.699Z,55.57
2023-05-04T08:29:52.985Z,55.20
2023-05-04T08:30:56.891Z,54.85
2023-05-04T08:31:59.406Z,54.58
2023-05-04T08:33:01.926Z,54.45
2023-05-04T08:34:05.119Z,53.99
2023-05-04T08:35:08.632Z,54.13
2023-05-04T08:36:12.404Z,54.49
2023-05-04T08:37:15.302Z,53.69
2023-05-04T08:38:18.016Z,53.50
2023-05-04T08:39:20.464Z,53.54
2023-05-04T08:40:23.717Z,52.90
2023-05-04T08:41:26.379Z,53.11
2023-05-04T08:42:32.613Z,53.11
2023-05-04T08:43:37.970Z,53.44
2023-05-04T08:44:43.300Z,54.61
2023-05-04T08:45:45.531Z,53.73
2023-05-04T08:46:49.896Z,54.08
2023-05-04T08:47:52.974Z,53.91
2023-05-04T08:48:55.586Z,54.69
2023-05-04T08:49:58.369Z,53.86
2023-05-04T08:51:02.429Z,54.43
2023-05-04T08:52:07.981Z,55.15
2023-05-04T08:53:13.179Z,54.15
2023-05-04T08:54:16.772Z,54.82
2023-05-04T08:55:20.000Z,54.96
2023-05-04T08:56:25.137Z,55.22
2023-05-04T08:57:28.113Z,55.01
2023-05-04T08:58:31.382Z,54.66
2023-05-04T08:59:35.920Z,54.32
2023-05-04T09:00:38.894Z,54.02
2023-05-04T09:01:41.636Z,54.03
2023-05-04T09:02:45.512Z,52.99
2023-05-04T09:03:50.172Z,53.52
2023-05-04T09:04:53.261Z,53.38
2023-05-04T09:05:57.461Z,53.01
2023-05-04T09:07:00.471Z,53.02
2023-05-04T09:08:02.742Z,52.68
2023-05-04T09:09:06.252Z,52.38
2023-05-04T09:10:10.571Z,52.30
2023-05-04T09:11:13.637Z,52.74
2023-05-04T09:12:16.913Z,52.78
2023-05-04T09:13:18.984Z,53.25
2023-05-04T09:14:23.115Z,52.92
2023-05-04T09:15:26.595Z,52.95
2023-05-04T09:16:38.335Z,52.62
2023-05-04T09:17:50.880Z,54.03
2023-05-04T09:18:47.283Z,54.75
2023-05-04T09:20:01.578Z,54.75
2023-05-04T09:21:04.696Z,54.75
2023-05-04T09:22:17.699Z,54.62
2023-05-04T09:23:21.821Z,53.95
2023-05-04T09:24:29.164Z,54.17
2023-05-04T09:25:32.627Z,53.63
2023-05-04T09:26:35.524Z,53.13
2023-05-04T09:27:39.829Z,52.99
2023-05-04T09:28:43.038Z,52.47
2023-05-04T09:29:49.921Z,52.35
2023-05-04T09:30:55.800Z,52.58
2023-05-04T09:31:58.268Z,52.92
2023-05-04T09:33:01.616Z,53.31
2023-05-04T09:34:10.409Z,53.18
2023-05-04T09:35:25.355Z,53.04
2023-05-04T09:36:20.496Z,53.03
2023-05-04T09:37:23.903Z,53.01
2023-05-04T09:38:33.570Z,52.85
2023-05-04T09:39:35.869Z,53.09
2023-05-04T09:40:40.947Z,52.34
2023-05-04T09:41:44.331Z,52.09
2023-05-04T09:42:50.228Z,52.14
2023-05-04T09:43:52.688Z,51.57
2023-05-04T09:45:04.449Z,51.70
2023-05-04T09:46:09.729Z,51.24
2023-05-04T09:47:12.285Z,50.63
2023-05-04T09:48:19.683Z,50.38
2023-05-04T09:49:37.453Z,50.38
2023-05-04T09:50:39.889Z,50.27
2023-05-04T09:51:42.607Z,50.66
2023-05-04T09:52:46.432Z,50.88
2023-05-04T09:53:50.087Z,51.30
2023-05-04T09:54:54.018Z,51.26
2023-05-04T09:56:19.753Z,51.68
2023-05-04T09:57:23.024Z,50.48
2023-05-04T09:58:25.708Z,49.96
2023-05-04T09:59:31.251Z,49.80
2023-05-04T10:00:35.621Z,50.48
2023-05-04T10:01:37.867Z,50.46
2023-05-04T10:02:40.869Z,50.04
2023-05-04T10:03:43.868Z,50.36
2023-05-04T10:04:47.521Z,49.76
2023-05-04T10:05:52.102Z,50.24
2023-05-04T10:06:55.386Z,50.18
2023-05-04T10:08:00.154Z,50.53
2023-05-04T10:09:04.424Z,50.79
2023-05-04T10:10:08.010Z,51.28
2023-05-04T10:11:12.030Z,50.95
2023-05-04T10:12:14.383Z,50.78
2023-05-04T10:13:17.840Z,51.05
2023-05-04T10:14:20.141Z,51.23
2023-05-04T10:15:25.475Z,51.71
2023-05-04T10:16:53.639Z,51.48
2023-05-04T10:19:37.106Z,50.67
2023-05-04T10:20:59.072Z,50.51
2023-05-04T10:22:22.620Z,50.16
2023-05-04T10:23:40.840Z,49.98
2023-05-04T10:25:01.291Z,50.52
2023-05-04T10:26:30.321Z,51.35
2023-05-04T10:27:57.275Z,53.71
2023-05-04T10:29:29.235Z,52.41
2023-05-04T10:30:32.092Z,51.19
2023-05-04T10:31:40.398Z,49.72
2023-05-04T10:32:43.236Z,49.44
2023-05-04T10:33:45.920Z,48.90
2023-05-04T10:34:49.484Z,49.88
2023-05-04T10:35:55.779Z,48.79
2023-05-04T10:37:01.160Z,46.97
2023-05-04T10:38:04.181Z,46.99
2023-05-04T10:39:19.875Z,47.72
2023-05-04T10:40:39.424Z,47.38
2023-05-04T10:41:41.725Z,46.72
2023-05-04T10:42:45.356Z,47.65
2023-05-04T10:43:52.544Z,46.57
2023-05-04T10:44:57.600Z,46.00
2023-05-04T10:46:01.741Z,45.98
2023-05-04T10:47:06.643Z,47.04
2023-05-04T10:48:10.484Z,46.24
2023-05-04T10:49:17.295Z,45.77
2023-05-04T10:50:19.719Z,45.11
2023-05-04T10:51:32.611Z,45.88
2023-05-04T10:52:32.160Z,44.71
2023-05-04T10:53:35.106Z,45.09
2023-05-04T10:54:38.645Z,43.94
2023-05-04T10:55:45.952Z,45.51
2023-05-04T10:56:48.852Z,45.00
2023-05-04T10:57:56.167Z,44.83
2023-05-04T10:59:02.070Z,44.68
2023-05-04T11:00:06.588Z,43.59
2023-05-04T11:01:12.475Z,43.50
2023-05-04T11:02:19.567Z,43.66
2023-05-04T11:03:24.330Z,43.39
2023-05-04T11:04:28.249Z,43.92
2023-05-04T11:05:46.322Z,43.36
2023-05-04T11:08:16.443Z,43.46
2023-05-04T11:09:19.729Z,44.40
2023-05-04T11:10:26.605Z,43.36
2023-05-04T11:11:29.061Z,43.15
2023-05-04T11:12:32.225Z,43.79
2023-05-04T11:13:37.148Z,43.51
2023-05-04T11:14:42.448Z,43.04
2023-05-04T11:15:50.875Z,42.30
2023-05-04T11:16:55.742Z,42.35
2023-05-04T11:17:58.398Z,42.74
2023-05-04T11:19:09.516Z,44.28
2023-05-04T11:20:20.507Z,44.38
2023-05-04T11:21:25.474Z,43.81
2023-05-04T11:22:28.755Z,42.15
2023-05-04T11:23:32.753Z,44.02
2023-05-04T11:24:43.435Z,44.34
2023-05-04T11:25:47.840Z,46.90
2023-05-04T11:26:50.562Z,47.30
2023-05-04T11:27:53.433Z,42.24
2023-05-04T11:28:55.845Z,43.52
2023-05-04T11:30:00.848Z,41.81
2023-05-04T11:31:17.731Z,42.18
2023-05-04T11:32:20.176Z,40.88
2023-05-04T11:33:22.963Z,40.74
2023-05-04T11:34:25.296Z,39.58
2023-05-04T11:35:27.707Z,40.26
2023-05-04T11:36:30.477Z,40.58
2023-05-04T11:37:41.332Z,40.40
2023-05-04T11:38:45.017Z,40.40
2023-05-04T11:39:47.858Z,39.17
2023-05-04T11:40:51.837Z,39.29
2023-05-04T11:41:54.144Z,39.58
2023-05-04T11:42:58.807Z,39.28
2023-05-04T11:44:03.461Z,40.65
2023-05-04T11:46:28.696Z,40.89
2023-05-04T11:47:31.231Z,41.19
2023-05-04T11:48:34.988Z,40.49
2023-05-04T11:49:37.960Z,40.70
2023-05-04T11:50:41.145Z,40.80
2023-05-04T11:51:43.428Z,40.99
2023-05-04T11:52:47.097Z,41.51
2023-05-04T11:53:49.285Z,41.69
2023-05-04T11:54:57.362Z,40.42
2023-05-04T11:56:03.190Z,40.29
2023-05-04T11:57:05.548Z,40.47
2023-05-04T11:58:09.918Z,40.57
2023-05-04T11:59:12.144Z,41.82
2023-05-04T12:00:15.404Z,44.84
2023-05-04T12:01:17.601Z,41.14
2023-05-04T12:02:23.502Z,41.52
2023-05-04T12:03:39.754Z,41.31
2023-05-04T12:04:35.002Z,40.05
2023-05-04T12:05:38.456Z,42.53
2023-05-04T12:06:40.888Z,40.36
2023-05-04T12:07:43.192Z,39.67
2023-05-04T12:08:45.568Z,40.36
2023-05-04T12:09:49.370Z,39.94
2023-05-04T12:11:21.421Z,40.13
2023-05-04T12:12:28.330Z,43.77
2023-05-04T12:13:30.858Z,40.13
2023-05-04T12:14:33.118Z,40.15
2023-05-04T12:15:36.629Z,40.06
2023-05-04T12:16:41.047Z,40.44
2023-05-04T12:17:43.727Z,40.47
2023-05-04T12:18:49.090Z,40.88
2023-05-04T12:21:17.840Z,40.26
2023-05-04T12:22:32.158Z,40.62
2023-05-04T12:23:36.087Z,41.39
2023-05-04T12:24:39.278Z,42.04
2023-05-04T12:25:54.791Z,42.17
2023-05-04T12:26:45.704Z,43.08
2023-05-04T12:27:48.077Z,44.20
2023-05-04T12:28:50.894Z,45.52
2023-05-04T12:29:53.746Z,46.60
2023-05-04T12:30:57.061Z,47.19
2023-05-04T12:31:59.682Z,47.85
2023-05-04T12:33:04.933Z,48.35
2023-05-04T12:34:07.136Z,48.35
2023-05-04T12:35:12.122Z,48.56
2023-05-04T12:36:14.821Z,48.23
2023-05-04T12:37:18.318Z,48.78
2023-05-04T12:38:21.838Z,48.77
2023-05-04T12:39:24.054Z,49.50
2023-05-04T12:40:28.660Z,49.56
2023-05-04T12:41:30.903Z,48.49
2023-05-04T12:42:33.469Z,48.94
2023-05-04T12:43:36.795Z,49.08
2023-05-04T12:44:39.186Z,48.85
2023-05-04T12:45:41.856Z,48.97
2023-05-04T12:46:44.174Z,48.41
2023-05-04T12:47:46.532Z,48.64
2023-05-04T12:48:48.982Z,48.24
2023-05-04T12:49:52.158Z,48.65
2023-05-04T12:50:54.615Z,49.02
2023-05-04T12:51:57.572Z,49.04
2023-05-04T12:53:01.227Z,48.78
2023-05-04T12:55:07.008Z,48.16
2023-05-04T12:56:10.301Z,47.58
2023-05-04T12:57:13.732Z,47.38
2023-05-04T12:58:15.984Z,47.55
2023-05-04T12:59:18.433Z,46.19
2023-05-04T13:00:21.560Z,45.45
2023-05-04T13:01:23.872Z,46.42
2023-05-04T13:02:26.207Z,46.66
2023-05-04T13:03:29.104Z,46.68
2023-05-04T13:04:33.607Z,46.82
2023-05-04T13:05:36.096Z,46.30
2023-05-04T13:06:38.718Z,45.77
2023-05-04T13:07:41.010Z,44.68
2023-05-04T13:08:44.229Z,44.26
2023-05-04T13:09:46.877Z,43.50
2023-05-04T13:10:50.205Z,43.32
2023-05-04T13:11:52.501Z,42.61
2023-05-04T13:12:54.953Z,42.81
2023-05-04T13:13:57.312Z,42.31
2023-05-04T13:15:00.224Z,41.52
2023-05-04T13:16:02.840Z,40.97
2023-05-04T13:17:06.921Z,39.76
2023-05-04T13:18:09.298Z,39.98
2023-05-04T13:19:11.419Z,39.62
2023-05-04T13:20:14.025Z,39.68
2023-05-04T13:21:16.677Z,38.54
2023-05-04T13:22:18.821Z,38.26
2023-05-04T13:23:21.356Z,37.79
2023-05-04T13:24:23.698Z,37.31
2023-05-04T13:25:26.664Z,37.30
2023-05-04T13:26:28.859Z,36.66
2023-05-04T13:27:33.209Z,36.16
2023-05-04T13:28:37.908Z,36.08
2023-05-04T13:29:41.038Z,36.26
2023-05-04T13:30:44.052Z,36.30
2023-05-04T13:31:46.645Z,36.66
2023-05-04T13:32:48.859Z,36.56
2023-05-04T13:33:51.277Z,36.90
2023-05-04T13:34:54.204Z,36.93
2023-05-04T13:35:57.408Z,36.64
2023-05-04T13:37:01.329Z,36.62
2023-05-04T13:38:03.813Z,36.99
2023-05-04T13:39:07.278Z,37.08
2023-05-04T13:40:11.298Z,37.56
2023-05-04T13:41:13.790Z,38.23
2023-05-04T13:42:15.895Z,38.65
2023-05-04T13:43:18.122Z,38.77
2023-05-04T13:44:20.496Z,39.02
2023-05-04T13:45:24.325Z,39.71
2023-05-04T13:46:26.610Z,39.51
2023-05-04T13:47:29.545Z,40.15
2023-05-04T13:48:33.902Z,40.76
2023-05-04T13:49:36.688Z,41.70
2023-05-04T13:50:40.318Z,40.93
2023-05-04T13:51:42.704Z,40.49
2023-05-04T13:52:46.272Z,40.59
2023-05-04T13:53:49.571Z,40.51
2023-05-04T13:54:52.960Z,40.94
2023-05-04T13:55:56.043Z,40.85
2023-05-04T13:56:59.406Z,41.04
2023-05-04T13:58:02.021Z,41.02
2023-05-04T13:59:05.884Z,41.10
2023-05-04T14:00:10.534Z,41.07
2023-05-04T14:01:13.377Z,41.39